Have a Safe July 4th! 

Flight Track Log - Related Links

Times and Time Zones

All times are in EDT time to prevent confusion due to time zone crossing. See the N559LC flight status page for this flight to view local times or setup timezone preferences in your user account.

Time Position Orientation Groundspeed Altitude Reporting Facility
EDT Latitude Longitude Course Direction KTS MPH feet Rate Location/Type
Wed 09:52:36 AM 42.1892 -83.3578 191° South 174 200 1,400  Level Cleveland Center
Wed 09:53:43 AM 42.1239 -83.3744 191° South 265 305 2,900 2,115 Climbing Cleveland Center
Wed 09:54:38 AM 42.0728 -83.4281 218° Southwest 256 295 5,700 2,754 Climbing Cleveland Center
Wed 09:55:45 AM 42.0828 -83.5236 278° West 261 300 8,500 2,361 Climbing Cleveland Center
Wed 09:56:40 AM 42.1186 -83.5925 305° West 265 305 10,500 1,733 Climbing Cleveland Center
Wed 09:58:00 AM 42.1819 -83.7133 305° West 309 356 12,400 1,071 Climbing Cleveland Center
Wed 09:59:00 AM 42.2294 -83.8108 303° West 315 362 13,000 1,008 Climbing Cleveland Center
Wed 09:59:59 AM 42.2808 -83.9092 305° West 315 362 14,400 1,613 Climbing Cleveland Center
Wed 10:00:59 AM 42.3300 -84.0100 303° West 315 362 16,200 1,785 Climbing Cleveland Center
Wed 10:02:00 AM 42.3811 -84.1083 305° West 315 362 18,000 1,600 Climbing Cleveland Center
Wed 10:04:29 AM 42.4333 -84.4142 283° West 350 403 21,800 1,507 Climbing Chicago Center
Wed 10:05:31 AM 42.4372 -84.5486 272° West 357 411 23,300 1,161 Climbing Chicago Center
Wed 10:06:33 AM 42.4406 -84.6878 272° West 368 423 24,200 968 Climbing Chicago Center
Wed 10:07:35 AM 42.4436 -84.8333 272° West 380 437 25,300 1,016 Climbing Chicago Center
Wed 10:08:37 AM 42.4469 -84.9808 272° West 389 448 26,300 1,065 Climbing Chicago Center
Wed 10:09:39 AM 42.4506 -85.1333 272° West 399 459 27,500 1,258 Climbing Chicago Center
Wed 10:10:41 AM 42.4531 -85.3172 271° West 405 466 28,900 1,452 Climbing Chicago Center
Wed 10:11:43 AM 42.4561 -85.4683 272° West 404 465 30,500 1,452 Climbing Chicago Center
Wed 10:12:45 AM 42.4581 -85.6128 271° West 388 447 31,900 960 Climbing Chicago Center
Wed 10:13:48 AM 42.4614 -85.7547 272° West 380 437 32,500 816 Climbing Chicago Center
Wed 10:14:50 AM 42.4619 -85.8986 270° West 380 437 33,600 1,016 Climbing Chicago Center
Wed 10:15:52 AM 42.4661 -86.0408 272° West 378 435 34,600 871 Climbing Chicago Center
Wed 10:16:54 AM 42.4950 -86.2061 283° West 379 436 35,400 677 Climbing Chicago Center
Wed 10:17:56 AM 42.5367 -86.3394 293° West 382 440 36,000 484 Climbing Chicago Center
Wed 10:18:58 AM 42.5781 -86.4739 293° West 384 442 36,400 387 Climbing Chicago Center
Wed 10:20:00 AM 42.6197 -86.6083 293° West 384 442 36,800 387 Climbing Chicago Center
Wed 10:21:02 AM 42.6603 -86.7414 293° West 379 436 37,200 435 Climbing Chicago Center
Wed 10:22:04 AM 42.6997 -86.8744 292° West 378 435 37,700 484 Climbing Chicago Center
Wed 10:23:06 AM 42.7400 -87.0039 293° West 371 427 38,200 532 Climbing Chicago Center
Wed 10:24:08 AM 42.7853 -87.1575 292° West 366 421 38,800 532 Climbing Chicago Center
Wed 10:25:10 AM 42.8244 -87.2875 292° West 371 427 39,300 484 Climbing Chicago Center
Wed 10:26:12 AM 42.8636 -87.4219 292° West 364 419 39,800 336 Climbing Chicago Center
Wed 10:27:15 AM 42.9039 -87.5533 293° West 373 429 40,000 96 Climbing Chicago Center
Wed 10:28:17 AM 42.9417 -87.6842 292° West 372 428 40,000  Level Chicago Center
Wed 10:29:19 AM 42.9797 -87.8131 292° West 368 423 40,000  Level Chicago Center
Wed 10:30:21 AM 43.0172 -87.9411 292° West 364 419 40,000  Level Chicago Center
Wed 10:31:23 AM 43.0606 -88.0933 291° West 366 421 40,000  Level Chicago Center
Wed 10:32:25 AM 43.0981 -88.2217 292° West 364 419 40,000  Level Chicago Center
Wed 10:33:27 AM 43.1522 -88.3417 302° West 368 423 40,000  Level Chicago Center
Wed 10:34:29 AM 43.2225 -88.4503 312° West 376 433 40,000  Level Chicago Center
Wed 10:35:31 AM 43.2956 -88.5608 312° West 384 442 40,000  Level Chicago Center
Wed 10:36:33 AM 43.3683 -88.6733 312° West 386 444 40,000  Level Chicago Center
Wed 10:37:35 AM 43.4422 -88.7842 313° West 387 445 40,000  Level Chicago Center
Wed 10:38:37 AM 43.5269 -88.9142 312° West 388 447 40,000  Level Chicago Center
Wed 10:39:39 AM 43.5989 -89.0253 312° West 386 444 40,000  Level Chicago Center
Wed 10:40:42 AM 43.6692 -89.1347 312° West 380 437 40,000  Level Chicago Center
Wed 10:41:44 AM 43.7403 -89.2461 311° West 385 443 40,000  Level Chicago Center
Wed 10:42:46 AM 43.8100 -89.3558 311° West 381 438 40,000  Level Chicago Center
Wed 10:43:48 AM 43.8803 -89.4656 312° West 379 436 40,000  Level Chicago Center
Wed 10:44:50 AM 43.9603 -89.5947 311° West 379 436 40,000  Level Chicago Center
Wed 10:45:48 AM 44.0175 -89.6861 311° West 381 438 40,000  Level Minneapolis Center
Wed 10:46:50 AM 44.0989 -89.8147 311° West 378 435 40,000  Level Minneapolis Center
Wed 10:47:52 AM 44.1675 -89.9264 311° West 381 438 40,000  Level Minneapolis Center
Wed 10:48:54 AM 44.2394 -90.0400 311° West 388 447 40,000  Level Minneapolis Center
Wed 10:49:57 AM 44.3036 -90.1661 305° West 396 456 40,000  Level Minneapolis Center
Wed 10:50:59 AM 44.3467 -90.3061 293° West 396 456 40,000  Level Minneapolis Center
Wed 10:52:01 AM 44.3922 -90.4750 291° West 396 456 40,000  Level Minneapolis Center
Wed 10:53:03 AM 44.4322 -90.6194 291° West 400 460 40,000  Level Minneapolis Center
Wed 10:54:05 AM 44.4725 -90.7656 291° West 402 463 40,000  Level Minneapolis Center
Wed 10:55:19 AM 44.5125 -90.9150 291° West 399 459 40,000  Level Minneapolis Center
Wed 10:56:21 AM 44.5592 -91.0850 291° West 396 456 40,000  Level Minneapolis Center
Wed 10:57:23 AM 44.5972 -91.2294 290° West 397 457 40,000  Level Minneapolis Center
Wed 10:58:25 AM 44.6372 -91.3733 291° West 398 458 40,000  Level Minneapolis Center
Wed 10:59:27 AM 44.6822 -91.5461 290° West 398 458 40,000  Level Minneapolis Center
Wed 11:00:30 AM 44.7197 -91.6911 290° West 398 458 40,000  Level Minneapolis Center
Wed 11:01:32 AM 44.7575 -91.8339 290° West 397 457 40,000  Level Minneapolis Center
Wed 11:02:34 AM 44.7939 -91.9767 290° West 396 456 40,000  Level Minneapolis Center
Wed 11:03:36 AM 44.8389 -92.1458 291° West 390 449 40,000  Level Minneapolis Center
Wed 11:04:38 AM 44.8750 -92.2897 290° West 392 451 40,000  Level Minneapolis Center
Wed 11:05:40 AM 44.9114 -92.4319 290° West 392 451 40,000  Level Minneapolis Center
Wed 11:06:54 AM 44.9483 -92.5756 290° West 393 452 40,000  Level Minneapolis Center
Wed 11:07:57 AM 44.9919 -92.7472 290° West 392 451 40,000  Level Minneapolis Center
Wed 11:08:59 AM 45.0356 -92.9208 290° West 395 455 40,000  Level Minneapolis Center
Wed 11:10:01 AM 45.0725 -93.0650 290° West 395 455 40,000  Level Minneapolis Center
Wed 11:11:03 AM 45.1122 -93.2306 289° West 398 458 40,000  Level Minneapolis Center
Wed 11:12:05 AM 45.1478 -93.3761 289° West 394 453 40,000  Level Minneapolis Center
Wed 11:13:07 AM 45.1761 -93.5058 287° West 390 449 40,000  Level Minneapolis Center
Wed 11:14:09 AM 45.2164 -93.6819 288° West 391 450 40,000  Level Minneapolis Center
Wed 11:15:11 AM 45.2500 -93.8283 288° West 392 451 40,000  Level Minneapolis Center
Wed 11:16:13 AM 45.2792 -93.9608 287° West 391 450 40,000  Level Minneapolis Center
Wed 11:17:15 AM 45.3175 -94.1353 287° West 386 444 40,000  Level Minneapolis Center
Wed 11:18:17 AM 45.3503 -94.2814 288° West 389 448 40,000  Level Minneapolis Center
Wed 11:19:19 AM 45.3825 -94.4267 288° West 389 448 40,000  Level Minneapolis Center
Wed 11:20:21 AM 45.4078 -94.5436 287° West 389 448 40,000  Level Minneapolis Center
Wed 11:21:23 AM 45.4461 -94.7211 287° West 392 451 40,000  Level Minneapolis Center
Wed 11:22:25 AM 45.4847 -94.8978 287° West 392 451 40,000  Level Minneapolis Center
Wed 11:23:40 AM 45.5164 -95.0472 287° West 395 455 40,000  Level Minneapolis Center
Wed 11:24:42 AM 45.5539 -95.2247 287° West 393 452 40,000  Level Minneapolis Center
Wed 11:25:44 AM 45.5789 -95.3444 287° West 394 453 40,000  Level Minneapolis Center
Wed 11:26:46 AM 45.6164 -95.5231 287° West 394 453 40,000  Level Minneapolis Center
Wed 11:27:48 AM 45.6528 -95.7025 286° West 394 453 40,000  Level Minneapolis Center
Wed 11:28:50 AM 45.6831 -95.8506 286° West 392 451 40,000  Level Minneapolis Center
Wed 11:29:52 AM 45.7131 -95.9981 286° West 390 449 40,000  Level Minneapolis Center
Wed 11:30:54 AM 45.7425 -96.1447 286° West 387 445 40,000  Level Minneapolis Center
Wed 11:31:57 AM 45.7719 -96.2908 286° West 386 444 40,000  Level Minneapolis Center
Wed 11:32:59 AM 45.8014 -96.4389 286° West 389 448 40,000  Level Minneapolis Center
Wed 11:34:01 AM 45.8364 -96.6136 286° West 383 441 40,000  Level Minneapolis Center
Wed 11:35:03 AM 45.8644 -96.7614 285° West 385 443 40,000  Level Minneapolis Center
Wed 11:36:05 AM 45.8933 -96.9075 286° West 383 441 40,000  Level Minneapolis Center
Wed 11:37:07 AM 45.9211 -97.0408 287° West 374 430 40,000  Level Minneapolis Center
Wed 11:38:09 AM 45.9486 -97.1900 285° West 384 442 40,000  Level Minneapolis Center
Wed 11:39:11 AM 45.9819 -97.3669 285° West 383 441 40,000  Level Minneapolis Center
Wed 11:40:13 AM 46.0108 -97.5136 286° West 384 442 40,000  Level Minneapolis Center
Wed 11:41:15 AM 46.0378 -97.6619 285° West 384 442 40,000  Level Minneapolis Center
Wed 11:42:17 AM 46.0658 -97.8097 285° West 384 442 40,000  Level Minneapolis Center
Wed 11:43:19 AM 46.0925 -97.9594 284° West 386 444 40,000  Level Minneapolis Center
Wed 11:44:21 AM 46.1203 -98.1100 285° West 389 448 40,000  Level Minneapolis Center
Wed 11:45:23 AM 46.1531 -98.2897 285° West 388 447 40,000  Level Minneapolis Center
Wed 11:46:25 AM 46.1794 -98.4375 285° West 384 442 40,000  Level Minneapolis Center
Wed 11:47:27 AM 46.2058 -98.5864 284° West 383 441 40,000  Level Minneapolis Center
Wed 11:48:30 AM 46.2319 -98.7369 284° West 385 443 40,000  Level Minneapolis Center
Wed 11:49:32 AM 46.2586 -98.8856 285° West 385 443 40,000  Level Minneapolis Center
Wed 11:50:34 AM 46.2839 -99.0356 284° West 385 443 40,000  Level Minneapolis Center
Wed 11:51:36 AM 46.3156 -99.2139 284° West 383 441 40,000  Level Minneapolis Center
Wed 11:52:50 AM 46.3372 -99.3492 283° West 382 440 40,000  Level Minneapolis Center
Wed 11:53:52 AM 46.3675 -99.5272 284° West 381 438 40,000  Level Minneapolis Center
Wed 11:54:54 AM 46.3967 -99.7064 283° West 383 441 40,000  Level Minneapolis Center
Wed 11:55:56 AM 46.4225 -99.8581 284° West 386 444 40,000  Level Minneapolis Center
Wed 11:56:58 AM 46.4469 -100.0069 283° West 383 441 40,000  Level Minneapolis Center
Wed 11:58:01 AM 46.4697 -100.1547 283° West 379 436 40,000  Level Minneapolis Center
Wed 11:59:03 AM 46.4939 -100.3031 283° West 378 435 40,000  Level Minneapolis Center
Wed 12:00:05 PM 46.5228 -100.4828 283° West 381 438 40,000  Level Minneapolis Center
Wed 12:01:07 PM 46.5461 -100.6336 283° West 382 440 40,000  Level Minneapolis Center
Wed 12:02:09 PM 46.5706 -100.7825 283° West 382 440 40,000  Level Minneapolis Center
Wed 12:03:11 PM 46.5925 -100.9333 282° West 382 440 40,000  Level Minneapolis Center
Wed 12:04:13 PM 46.6167 -101.0847 283° West 384 442 40,000  Level Minneapolis Center
Wed 12:05:27 PM 46.6392 -101.2356 282° West 384 442 40,000 81 Level Minneapolis Center
Wed 12:06:41 PM 46.6700 -101.4497 282° West 386 444 40,200 394 Climbing Minneapolis Center
Wed 12:07:44 PM 46.6967 -101.6292 282° West 381 438 40,900 624 Climbing Minneapolis Center
Wed 12:08:46 PM 46.7208 -101.7892 282° West 377 434 41,500 581 Climbing Minneapolis Center
Wed 12:09:48 PM 46.7419 -101.9356 282° West 373 429 42,100 532 Climbing Minneapolis Center
Wed 12:10:50 PM 46.7633 -102.0786 282° West 366 421 42,600 435 Climbing Minneapolis Center
Wed 12:11:52 PM 46.7842 -102.2222 282° West 363 418 43,000 194 Climbing Minneapolis Center
Wed 12:12:54 PM 46.8069 -102.3667 283° West 365 420 43,000  Level Minneapolis Center
Wed 12:13:56 PM 46.8286 -102.5181 282° West 374 430 43,000  Level Minneapolis Center
Wed 12:14:59 PM 46.8503 -102.6711 282° West 381 438 43,000  Level Minneapolis Center
Wed 12:16:01 PM 46.8717 -102.8592 280° West 388 447 43,000  Level Minneapolis Center
Wed 12:17:15 PM 46.8892 -103.0133 279° West 388 447 43,000  Level Minneapolis Center
Wed 12:18:17 PM 46.9069 -103.2000 278° West 386 444 43,000  Level Minneapolis Center
Wed 12:19:19 PM 46.9222 -103.3556 278° West 386 444 43,000  Level Minneapolis Center
Wed 12:20:33 PM 46.9386 -103.5133 279° West 389 448 43,000  Level Minneapolis Center
Wed 12:21:36 PM 46.9597 -103.7311 278° West 388 447 43,000  Level Minneapolis Center
Wed 12:22:38 PM 46.9750 -103.8886 278° West 389 448 43,000  Level Minneapolis Center
Wed 12:23:40 PM 46.9892 -104.0439 278° West 387 445 43,000  Level Minneapolis Center
Wed 12:24:42 PM 47.0000 -104.1700 277° West 388 447 43,000  Level Minneapolis Center
Wed 12:25:44 PM 47.0181 -104.3572 278° West 387 445 43,000  Level Minneapolis Center
Wed 12:26:46 PM 47.0325 -104.5153 278° West 388 447 43,000  Level Minneapolis Center
Wed 12:28:12 PM 47.0511 -104.7375 277° West 389 448 43,000  Level Salt Lake Center
Wed 12:29:14 PM 47.0650 -104.8936 277° West 388 447 43,000  Level Salt Lake Center
Wed 12:30:16 PM 47.0794 -105.0817 277° West 388 447 43,000  Level Salt Lake Center
Wed 12:31:18 PM 47.0936 -105.2389 278° West 388 447 43,000  Level Salt Lake Center
Wed 12:32:20 PM 47.1067 -105.3964 277° West 389 448 43,000  Level Salt Lake Center
Wed 12:33:22 PM 47.1211 -105.5539 278° West 389 448 43,000  Level Salt Lake Center
Wed 12:34:24 PM 47.1342 -105.7111 277° West 389 448 43,000  Level Salt Lake Center
Wed 12:35:26 PM 47.1453 -105.8681 276° West 388 447 43,000  Level Salt Lake Center
Wed 12:36:28 PM 47.1639 -106.0575 278° West 389 448 43,000  Level Salt Lake Center
Wed 12:37:30 PM 47.1758 -106.2147 276° West 388 447 43,000  Level Salt Lake Center
Wed 12:38:32 PM 47.1881 -106.3711 277° West 390 449 43,000  Level Salt Lake Center
Wed 12:39:34 PM 47.1989 -106.5281 276° West 389 448 43,000  Level Salt Lake Center
Wed 12:40:36 PM 47.2128 -106.7167 276° West 388 447 43,000  Level Salt Lake Center
Wed 12:42:40 PM 47.2347 -107.0319 276° West 389 448 43,000  Level Salt Lake Center
Wed 12:43:42 PM 47.2458 -107.1886 276° West 388 447 43,000  Level Salt Lake Center
Wed 12:44:44 PM 47.2561 -107.3456 276° West 388 447 43,000  Level Salt Lake Center
Wed 12:45:46 PM 47.2664 -107.5033 276° West 387 445 43,000  Level Salt Lake Center
Wed 12:46:48 PM 47.2783 -107.6972 275° West 395 455 43,000  Level Salt Lake Center
Wed 12:47:50 PM 47.2881 -107.8544 275° West 391 450 43,000  Level Salt Lake Center
Wed 12:48:52 PM 47.2978 -108.0111 275° West 388 447 43,000  Level Salt Lake Center
Wed 12:49:54 PM 47.3067 -108.1717 275° West 391 450 43,000  Level Salt Lake Center
Wed 12:50:56 PM 47.3161 -108.3275 275° West 389 448 43,000  Level Salt Lake Center
Wed 12:51:58 PM 47.3236 -108.4861 274° West 388 447 43,000  Level Salt Lake Center
Wed 12:53:00 PM 47.3358 -108.6753 276° West 388 447 43,000  Level Salt Lake Center
Wed 12:54:02 PM 47.3442 -108.8331 275° West 388 447 43,000  Level Salt Lake Center
Wed 12:55:05 PM 47.3511 -108.9928 274° West 389 448 43,000  Level Salt Lake Center
Wed 12:56:07 PM 47.3589 -109.1503 274° West 388 447 43,000  Level Salt Lake Center
Wed 12:57:09 PM 47.3664 -109.3083 274° West 388 447 43,000  Level Salt Lake Center
Wed 12:58:11 PM 47.3744 -109.4686 274° West 390 449 43,000  Level Salt Lake Center
Wed 12:59:13 PM 47.3839 -109.6611 274° West 393 452 43,000  Level Salt Lake Center
Wed 01:00:15 PM 47.3900 -109.8211 273° West 392 451 43,000  Level Salt Lake Center
Wed 01:01:17 PM 47.3981 -109.9822 274° West 394 453 43,000  Level Salt Lake Center
Wed 01:02:19 PM 47.4042 -110.1422 273° West 392 451 43,000  Level Salt Lake Center
Wed 01:03:21 PM 47.4106 -110.3011 273° West 390 449 43,000  Level Salt Lake Center
Wed 01:04:23 PM 47.4169 -110.4611 273° West 391 450 43,000  Level Salt Lake Center
Wed 01:05:25 PM 47.4231 -110.6211 273° West 390 449 43,000  Level Salt Lake Center
Wed 01:06:27 PM 47.4297 -110.8144 273° West 393 452 43,000  Level Salt Lake Center
Wed 01:07:29 PM 47.4356 -110.9772 273° West 396 456 43,000  Level Salt Lake Center
Wed 01:08:31 PM 47.4406 -111.1403 273° West 395 455 43,000  Level Salt Lake Center
Wed 01:09:33 PM 47.4442 -111.3067 272° West 398 458 43,000  Level Salt Lake Center
Wed 01:10:35 PM 47.4497 -111.4744 273° West 402 463 43,000  Level Salt Lake Center
Wed 01:11:37 PM 47.4539 -111.6406 272° West 402 463 43,000  Level Salt Lake Center
Wed 01:12:39 PM 47.4558 -111.8042 271° West 399 459 43,000  Level Salt Lake Center
Wed 01:13:41 PM 47.4592 -111.9667 272° West 396 456 43,000  Level Salt Lake Center
Wed 01:14:43 PM 47.4611 -112.1594 271° West 393 452 43,000  Level Salt Lake Center
Wed 01:15:45 PM 47.4633 -112.3211 271° West 395 455 43,000  Level Salt Lake Center
Wed 01:16:47 PM 47.4653 -112.4828 271° West 395 455 43,000  Level Salt Lake Center
Wed 01:17:49 PM 47.4661 -112.6436 270° West 393 452 43,000  Level Salt Lake Center
Wed 01:18:51 PM 47.4678 -112.8036 271° West 391 450 43,000  Level Salt Lake Center
Wed 01:19:53 PM 47.4703 -112.9764 271° West 389 448 43,000  Level Salt Lake Center
Wed 01:20:56 PM 47.4706 -113.1417 270° West 392 451 43,000  Level Salt Lake Center
Wed 01:21:58 PM 47.4722 -113.2986 271° West 393 452 43,000  Level Salt Lake Center
Wed 01:23:00 PM 47.4731 -113.4614 270° West 396 456 43,000  Level Salt Lake Center
Wed 01:24:02 PM 47.4736 -113.6525 270° West 390 449 43,000  Level Salt Lake Center
Wed 01:25:04 PM 47.4725 -113.8122 269° West 389 448 43,000  Level Salt Lake Center
Wed 01:26:06 PM 47.4722 -113.9731 270° West 391 450 43,000  Level Salt Lake Center
Wed 01:27:08 PM 47.4731 -114.1353 270° West 393 452 43,000  Level Salt Lake Center
Wed 01:28:10 PM 47.4717 -114.2969 269° West 393 452 43,000  Level Salt Lake Center
Wed 01:28:56 PM 47.4700 -114.4247 269° West 390 449 43,000  Level Seattle Center
Wed 01:29:58 PM 47.4694 -114.5856 270° West 390 449 43,000  Level Seattle Center
Wed 01:30:59 PM 47.4858 -114.7458 279° West 393 452 43,000  Level Seattle Center
Wed 01:32:00 PM 47.5103 -114.9067 283° West 398 458 43,000  Level Seattle Center
Wed 01:33:01 PM 47.5333 -115.0672 282° West 400 460 43,000  Level Seattle Center
Wed 01:34:02 PM 47.5550 -115.2275 281° West 398 458 43,000  Level Seattle Center
Wed 01:35:03 PM 47.5831 -115.4208 282° West 399 459 43,000  Level Seattle Center
Wed 01:36:05 PM 47.6053 -115.5808 282° West 399 459 43,000  Level Seattle Center
Wed 01:37:06 PM 47.6261 -115.7433 281° West 399 459 43,000  Level Seattle Center
Wed 01:38:07 PM 47.6489 -115.9056 282° West 401 461 43,000  Level Seattle Center
Wed 01:39:08 PM 47.6703 -116.0672 281° West 402 463 43,000  Level Seattle Center
Wed 01:40:09 PM 47.6903 -116.2267 281° West 399 459 43,000  Level Seattle Center
Wed 01:41:11 PM 47.7111 -116.3883 281° West 399 459 43,000  Level Seattle Center
Wed 01:42:12 PM 47.7328 -116.5494 281° West 399 459 43,000  Level Seattle Center
Wed 01:43:13 PM 47.7539 -116.7114 281° West 402 463 43,000  Level Seattle Center
Wed 01:44:14 PM 47.7789 -116.9064 281° West 404 465 43,000  Level Seattle Center
Wed 01:45:16 PM 47.8003 -117.0686 281° West 406 467 43,000  Level Seattle Center
Wed 01:46:17 PM 47.8194 -117.2314 280° West 406 467 43,000  Level Seattle Center
Wed 01:47:18 PM 47.8381 -117.3933 280° West 404 465 43,000  Level Seattle Center
Wed 01:48:19 PM 47.8575 -117.5567 280° West 404 465 43,000  Level Seattle Center
Wed 01:49:20 PM 47.8758 -117.7217 279° West 406 467 43,000  Level Seattle Center
Wed 01:50:22 PM 47.8956 -117.8875 280° West 408 470 43,000  Level Seattle Center
Wed 01:51:23 PM 47.9139 -118.0517 280° West 405 466 43,000  Level Seattle Center
Wed 01:52:24 PM 47.9364 -118.2500 280° West 407 468 43,000  Level Seattle Center
Wed 01:53:25 PM 47.9547 -118.4167 279° West 409 471 43,000  Level Seattle Center
Wed 01:54:26 PM 47.9733 -118.5839 279° West 410 472 43,000  Level Seattle Center
Wed 01:55:27 PM 47.9906 -118.7544 279° West 416 479 43,000  Level Seattle Center
Wed 01:56:29 PM 48.0094 -118.9211 280° West 411 473 43,000  Level Seattle Center
Wed 01:57:30 PM 48.0303 -119.0881 281° West 411 473 43,000  Level Seattle Center
Wed 01:58:31 PM 48.0431 -119.2594 276° West 418 481 43,000  Level Seattle Center
Wed 01:59:32 PM 48.0606 -119.4264 279° West 411 473 43,000  Level Seattle Center
Wed 02:00:33 PM 48.0769 -119.5931 278° West 407 468 43,000  Level Seattle Center
Wed 02:01:34 PM 48.0958 -119.7586 280° West 405 466 43,000  Level Seattle Center
Wed 02:02:36 PM 48.1181 -119.9600 279° West 411 473 43,000 -49 Level Seattle Center
Wed 02:03:37 PM 48.1303 -120.1269 276° West 403 464 42,900 -934 Descending Seattle Center
Wed 02:04:38 PM 48.1583 -120.2969 284° West 423 487 41,100 -2,066 Descending Seattle Center
Wed 02:05:39 PM 48.1881 -120.4658 285° West 423 487 38,700 -2,262 Descending Seattle Center
Wed 02:06:40 PM 48.2208 -120.6356 286° West 426 490 36,500 -1,967 Descending Seattle Center
Wed 02:07:41 PM 48.2503 -120.8072 285° West 427 491 34,700 -2,780 Descending Seattle Center
Wed 02:08:43 PM 48.2844 -121.0089 284° West 448 516 30,800 -3,366 Descending Seattle Center
Wed 02:09:44 PM 48.3153 -121.1872 285° West 448 516 27,800 -2,935 Descending Seattle Center
Wed 02:10:15 PM 48.3167 -121.2833 271° West 440 506 26,300 -2,440 Descending Vancouver Center
Wed 02:11:15 PM 48.3500 -121.4333 289° West 420 483 24,100 -2,110 Descending Vancouver Center
Wed 02:11:46 PM 48.3697 -121.5222 288° West 415 478 23,100 -2,087 Descending Seattle Center
Wed 02:12:47 PM 48.4000 -121.6761 287° West 394 453 20,900 -1,918 Descending Seattle Center
Wed 02:13:48 PM 48.4492 -121.8167 298° West 386 444 19,200 -1,659 Descending Seattle Center
Wed 02:14:50 PM 48.5111 -121.9792 300° West 379 436 17,500 -1,512 Descending Seattle Center
Wed 02:15:51 PM 48.5622 -122.1119 300° West 374 430 16,100 -1,328 Descending Seattle Center
Wed 02:16:52 PM 48.6114 -122.2433 300° West 368 423 14,800 -1,279 Descending Seattle Center
Wed 02:17:53 PM 48.6603 -122.3692 300° West 358 412 13,500 -1,279 Descending Seattle Center
Wed 02:18:54 PM 48.7031 -122.4886 299° West 338 389 12,200 -1,122 Descending Seattle Center
Wed 02:19:56 PM 48.7575 -122.5975 307° West 330 380 11,200 -1,366 Descending Seattle Center
Wed 02:20:57 PM 48.8178 -122.7178 307° West 309 356 9,400 -1,381 Descending Seattle Center
Wed 02:22:15 PM 48.8667 -122.8333 303° West 280 322 8,000 -609 Descending Vancouver Center
Wed 02:23:15 PM 48.9000 -122.9167 301° West 250 288 8,000 -650 Level Vancouver Center
Wed 02:24:15 PM 48.9500 -122.9833 319° Northwest 250 288 6,700 -1,450 Descending Vancouver Center
Wed 02:25:15 PM 49.0167 -122.9833 360° North 260 299 5,100 -1,350 Descending Vancouver Center
Wed 02:26:15 PM 49.0667 -122.9000 48° Northeast 240 276 4,000 -800 Descending Vancouver Center
Wed 02:27:15 PM 49.1167 -122.8833 12° North 220 253 3,500 -700 Descending Vancouver Center
Wed 02:28:15 PM 49.1500 -122.9500 307° West 200 230 2,600 -900 Descending Vancouver Center
Wed 02:29:15 PM 49.1500 -123.0333 270° West 170 196 1,700 -850 Descending Vancouver Center
Wed 02:30:15 PM 49.1500 -123.0833 270° West 160 184 900 -800 Descending Vancouver Center

Login

Don't have an account? Register now (free) for customized features, flight alerts, and more!